EDDT Airport Information

Runway Information
Runway 08L Length 9918 ft width 151 ft
Elevation 110 ft Threshold 0 ft Heading 81
Runway 26R Length 9918 ft Width 151 ft
Elevation 117 ft Threshold 0 ft Heading 261
Runway 08R Length 7966 ft width 151 ft
Elevation 109 ft Threshold 341 ft Heading 81
Runway 26L Length 7966 ft Width 151 ft
Elevation 122 ft Threshold 722 ft Heading 261
Airport Frequencies
Type AFIS Name BERLIN INF Frequency 132.65 MHZ
Type APP Name BERLIN ARR Frequency 119.625 MHZ
Type ATIS Name ATIS Frequency 125.9 MHZ
Type DEP Name BERLIN DEP Frequency 120.625 MHZ
Type DIR Name BERLIN DIR Frequency 136.1 MHZ
Type GND Name GND Frequency 121.925 MHZ
Type RMP Name BERLIN MIL Frequency 136 MHZ
Type TWR Name TWR Frequency 124.525 MHZ
Airport Navaids
Type NDB Name Tegel East Frequency 321 KHZ
Type NDB Name Tegel West Frequency 392 KHZ
Type VOR-DME Name Tegel Frequency 112300 KHZ
Airport Weather Information & NOTAM
ADDS - METARS form results

(2234 UTC 12 July 2020)
Data provider http://aviationweather.gov/metar/data/
 
METAR text: EDDT 122220Z 31002KT CAVOK 16/09 Q1026
Conditions at: EDDT (BERLIN/TEGEL (FA, DE) observed 2220 UTC 12 July 2020
Temperature: 16.0°C (61°F)
Dewpoint: 9.0°C (48°F) [RH = 63%]
Pressure (altimeter): 30.30 inches Hg (1026.0 mb)
Winds: from the NW (310 degrees) at 2 MPH (2 knots; 1.0 m/s)
Visibility: 6 or more miles (10+ km)
Ceiling: ceiling and visibility are OK
Clouds: unknown
Weather: no significant weather observed at this time

METAR text: EDDT 122150Z VRB02KT CAVOK 16/08 Q1026
Conditions at: EDDT (BERLIN/TEGEL (FA, DE) observed 2150 UTC 12 July 2020
Temperature: 16.0°C (61°F)
Dewpoint: 8.0°C (46°F) [RH = 59%]
Pressure (altimeter): 30.30 inches Hg (1026.0 mb)
Winds: variable direction winds at 2 MPH (2 knots; 1.0 m/s)
Visibility: 6 or more miles (10+ km)
Ceiling: ceiling and visibility are OK
Clouds: unknown
Weather: no significant weather observed at this time

Forecast for: EDDT (BERLIN/TEGEL (FA, DE)
Text: TAF EDDT 121700Z 1218/1318 33008KT CAVOK
Forecast period: 1800 UTC 12 July 2020 to 1800 UTC 13 July 2020
Forecast type: FROM: standard forecast or significant change
Winds: from the NNW (330 degrees) at 9 MPH (8 knots; 4.1 m/s)
Visibility: 6 or more miles 10+ km)
Ceiling: unknown
Clouds: missing
Weather: NSW  (no significant weather)
Text: BECMG 1218/1220 VRB03KT
Forecast period: 1800 UTC 12 July 2020 to 0700 UTC 13 July 2020
Forecast type: BECOMING: Conditions expected to become as follows by 2000 UTC 12 July 2020
Winds: variable direction winds at 3 MPH (3 knots; 1.5 m/s)
Visibility: 6 or more miles 10+ km)
Ceiling: unknown
Clouds: missing
Weather: NSW  (no significant weather)
Text: BECMG 1307/1310 27005KT
Forecast period: 0700 to 1800 UTC 13 July 2020
Forecast type: BECOMING: Conditions expected to become as follows by 1000 UTC 13 July 2020
Winds: from the W (270 degrees) at 6 MPH (5 knots; 2.6 m/s)
Visibility: 6 or more miles 10+ km)
Ceiling: unknown
Clouds: missing
Weather: NSW  (no significant weather)